createdAt,value
2017-12-03T00:02:06.595Z,0.17
2017-12-03T00:04:34.125Z,0.39
2017-12-03T00:07:01.636Z,0.37
2017-12-03T00:09:29.164Z,-0.14
2017-12-03T00:11:56.657Z,0.05
2017-12-03T00:14:24.164Z,0.26
2017-12-03T00:16:51.660Z,0.23
2017-12-03T00:19:19.170Z,-0.10
2017-12-03T00:21:46.656Z,0.13
2017-12-03T00:24:14.216Z,-0.02
2017-12-03T00:26:41.710Z,-0.01
2017-12-03T00:29:09.212Z,0.30
2017-12-03T00:31:36.721Z,0.36
2017-12-03T00:34:04.220Z,0.45
2017-12-03T00:36:31.746Z,0.71
2017-12-03T00:38:59.268Z,0.21
2017-12-03T00:41:26.800Z,-0.17
2017-12-03T00:43:54.288Z,0.00
2017-12-03T00:46:21.830Z,-0.01
2017-12-03T00:48:49.321Z,0.25
2017-12-03T00:51:16.842Z,0.21
2017-12-03T00:53:44.344Z,0.34
2017-12-03T00:56:11.851Z,0.32
2017-12-03T00:58:39.346Z,0.32
2017-12-03T01:01:06.855Z,0.26
2017-12-03T01:03:34.363Z,0.32
2017-12-03T01:06:01.874Z,-0.05
2017-12-03T01:08:29.362Z,0.07
2017-12-03T01:10:56.899Z,0.18
2017-12-03T01:13:24.399Z,0.00
2017-12-03T01:15:52.553Z,0.31
2017-12-03T01:18:20.066Z,0.21
2017-12-03T01:20:47.599Z,0.30
2017-12-03T01:23:15.106Z,0.15
2017-12-03T01:25:42.606Z,0.25
2017-12-03T01:28:10.107Z,0.40
2017-12-03T01:30:37.608Z,0.44
2017-12-03T01:33:05.125Z,0.44
2017-12-03T01:35:32.633Z,0.37
2017-12-03T01:38:00.221Z,0.04
2017-12-03T01:40:27.742Z,-0.21
2017-12-03T01:42:55.254Z,-0.35
2017-12-03T01:45:22.767Z,-0.19
2017-12-03T01:47:50.267Z,-0.15
2017-12-03T01:50:17.841Z,0.34
2017-12-03T01:52:45.337Z,0.35
2017-12-03T01:55:12.863Z,0.31
2017-12-03T01:57:40.401Z,0.21
2017-12-03T02:00:07.918Z,0.27
2017-12-03T02:02:35.429Z,-0.14
2017-12-03T02:05:02.923Z,0.14
2017-12-03T02:07:30.420Z,0.11
2017-12-03T02:09:57.921Z,0.24
2017-12-03T02:12:25.442Z,0.11
2017-12-03T02:14:53.120Z,0.29
2017-12-03T02:17:20.655Z,0.29
2017-12-03T02:19:48.146Z,0.47
2017-12-03T02:22:15.641Z,0.45
2017-12-03T02:24:43.149Z,0.44
2017-12-03T02:27:10.644Z,0.23
2017-12-03T02:29:38.138Z,0.38
2017-12-03T02:32:05.624Z,0.32
2017-12-03T02:34:33.132Z,0.51
2017-12-03T02:37:00.643Z,0.41
2017-12-03T02:39:28.158Z,-0.01
2017-12-03T02:41:55.646Z,-0.04
2017-12-03T02:44:23.153Z,-0.30
2017-12-03T02:46:50.681Z,-0.08
2017-12-03T02:49:18.208Z,-0.16
2017-12-03T02:51:45.696Z,0.16
2017-12-03T02:54:13.185Z,-0.02
2017-12-03T02:56:40.694Z,0.13
2017-12-03T02:59:08.197Z,0.15
2017-12-03T03:01:35.789Z,-0.29
2017-12-03T03:04:04.005Z,-0.10
2017-12-03T03:06:31.518Z,-0.33
2017-12-03T03:09:03.687Z,-0.33
2017-12-03T03:11:31.186Z,-0.15
2017-12-03T03:13:58.745Z,0.14
2017-12-03T03:16:26.250Z,0.13
2017-12-03T03:18:53.745Z,-0.27
2017-12-03T03:21:21.251Z,-0.38
2017-12-03T03:23:48.781Z,-0.29
2017-12-03T03:26:16.285Z,-0.54
2017-12-03T03:28:43.816Z,-0.12
2017-12-03T03:31:11.336Z,-0.11
2017-12-03T03:33:38.857Z,-0.36
2017-12-03T03:36:06.353Z,-0.42
2017-12-03T03:38:33.934Z,-0.01
2017-12-03T03:41:01.510Z,0.00
2017-12-03T03:43:29.045Z,0.50
2017-12-03T03:45:56.553Z,0.53
2017-12-03T03:48:24.062Z,0.21
2017-12-03T03:50:51.577Z,-0.53
2017-12-03T03:53:19.078Z,-0.28
2017-12-03T03:55:46.581Z,-0.42
2017-12-03T03:58:14.071Z,-0.59
2017-12-03T04:00:41.597Z,-0.41
2017-12-03T04:03:09.100Z,-0.29
2017-12-03T04:05:36.617Z,-0.61
2017-12-03T04:08:04.128Z,-0.79
2017-12-03T04:10:31.646Z,-1.01
2017-12-03T04:12:59.157Z,-0.98
2017-12-03T04:15:26.645Z,-0.86
2017-12-03T04:17:54.149Z,-0.37
2017-12-03T04:20:21.690Z,-0.57
2017-12-03T04:22:49.181Z,-0.99
2017-12-03T04:25:16.737Z,-1.02
2017-12-03T04:27:44.261Z,-1.08
2017-12-03T04:30:11.760Z,-1.03
2017-12-03T04:32:39.258Z,-0.66
2017-12-03T04:35:06.758Z,-0.95
2017-12-03T04:37:34.278Z,-0.95
2017-12-03T04:40:01.805Z,-0.73
2017-12-03T04:42:29.305Z,-0.53
2017-12-03T04:44:56.803Z,-0.51
2017-12-03T04:47:24.298Z,-0.29
2017-12-03T04:49:51.805Z,-0.43
2017-12-03T04:52:19.329Z,-0.56
2017-12-03T04:54:46.845Z,-0.86
2017-12-03T04:57:14.349Z,-0.95
2017-12-03T04:59:41.848Z,-0.92
2017-12-03T05:02:09.358Z,-0.69
2017-12-03T05:04:36.852Z,-0.39
2017-12-03T05:07:04.365Z,-0.29
2017-12-03T05:09:31.859Z,-0.28
2017-12-03T05:11:59.357Z,-0.05
2017-12-03T05:14:26.878Z,-0.71
2017-12-03T05:16:54.400Z,-0.76
2017-12-03T05:19:21.951Z,-0.38
2017-12-03T05:21:49.478Z,-0.93
2017-12-03T05:24:16.986Z,-0.42
2017-12-03T05:26:44.509Z,-0.18
2017-12-03T05:29:12.051Z,0.04
2017-12-03T05:31:39.544Z,-0.28
2017-12-03T05:34:07.038Z,-0.11
2017-12-03T05:36:34.546Z,-0.29
2017-12-03T05:39:02.054Z,-0.70
2017-12-03T05:41:29.546Z,-1.00
2017-12-03T05:43:57.036Z,-1.21
2017-12-03T05:46:24.523Z,-1.34
2017-12-03T05:48:52.029Z,-1.27
2017-12-03T05:51:19.529Z,-1.32
2017-12-03T05:53:47.024Z,-1.20
2017-12-03T05:56:14.534Z,-0.98
2017-12-03T05:58:42.059Z,-1.07
2017-12-03T06:01:09.557Z,-1.12
2017-12-03T06:03:37.185Z,-0.86
2017-12-03T06:06:04.793Z,-0.82
2017-12-03T06:08:32.357Z,-0.72
2017-12-03T06:10:59.837Z,-0.98
2017-12-03T06:13:27.337Z,-1.14
2017-12-03T06:15:54.841Z,-1.13
2017-12-03T06:18:22.344Z,-1.05
2017-12-03T06:20:49.856Z,-0.76
2017-12-03T06:23:17.376Z,-0.55
2017-12-03T06:25:44.889Z,-0.18
2017-12-03T06:28:12.390Z,-0.26
2017-12-03T06:30:39.918Z,-0.93
2017-12-03T06:33:07.470Z,-1.04
2017-12-03T06:35:35.053Z,-0.97
2017-12-03T06:38:02.563Z,-0.98
2017-12-03T06:40:30.096Z,-1.03
2017-12-03T06:42:57.618Z,-1.01
2017-12-03T06:45:25.123Z,-1.02
2017-12-03T06:47:52.627Z,-0.93
2017-12-03T06:50:20.129Z,-1.06
2017-12-03T06:52:47.765Z,-1.15
2017-12-03T06:55:15.272Z,-1.19
2017-12-03T06:57:42.814Z,-1.22
2017-12-03T07:00:10.339Z,-1.22
2017-12-03T07:02:37.851Z,-1.25
2017-12-03T07:05:05.354Z,-1.18
2017-12-03T07:07:32.885Z,-1.14
2017-12-03T07:10:00.390Z,-1.20
2017-12-03T07:12:27.908Z,-1.14
2017-12-03T07:14:55.409Z,-1.13
2017-12-03T07:17:22.941Z,-1.08
2017-12-03T07:19:50.481Z,-1.17
2017-12-03T07:22:18.066Z,-1.18
2017-12-03T07:24:45.734Z,-1.22
2017-12-03T07:27:13.248Z,-1.21
2017-12-03T07:29:40.828Z,-1.19
2017-12-03T07:32:08.365Z,-1.10
2017-12-03T07:34:35.897Z,-1.05
2017-12-03T07:37:03.424Z,-0.67
2017-12-03T07:39:30.944Z,-0.49
2017-12-03T07:41:58.455Z,-0.76
2017-12-03T07:44:25.961Z,-1.01
2017-12-03T07:46:53.481Z,-1.08
2017-12-03T07:49:21.012Z,-0.95
2017-12-03T07:51:48.533Z,-0.99
2017-12-03T07:54:16.063Z,-1.07
2017-12-03T07:56:43.618Z,-1.04
2017-12-03T07:59:11.115Z,-0.83
2017-12-03T08:01:38.607Z,-0.59
2017-12-03T08:04:06.181Z,-0.02
2017-12-03T08:06:33.677Z,0.25
2017-12-03T08:09:01.172Z,-0.25
2017-12-03T08:11:28.721Z,-0.57
2017-12-03T08:13:56.236Z,-0.65
2017-12-03T08:16:23.744Z,-0.42
2017-12-03T08:18:51.250Z,-0.46
2017-12-03T08:21:18.987Z,-0.19
2017-12-03T08:23:46.483Z,0.20
2017-12-03T08:26:13.974Z,0.55
2017-12-03T08:28:41.480Z,0.33
2017-12-03T08:31:08.992Z,-0.09
2017-12-03T08:33:36.482Z,0.57
2017-12-03T08:36:04.004Z,0.22
2017-12-03T08:38:31.517Z,0.35
2017-12-03T08:40:59.009Z,-0.22
2017-12-03T08:43:26.497Z,0.53
2017-12-03T08:45:54.038Z,0.61
2017-12-03T08:48:21.557Z,0.54
2017-12-03T08:50:49.066Z,0.83
2017-12-03T08:53:16.557Z,0.98
2017-12-03T08:55:44.087Z,0.41
2017-12-03T08:58:11.664Z,0.45
2017-12-03T09:00:39.209Z,1.07
2017-12-03T09:03:06.749Z,0.47
2017-12-03T09:05:34.262Z,0.11
2017-12-03T09:08:01.887Z,0.75
2017-12-03T09:10:29.406Z,0.48
2017-12-03T09:12:57.006Z,0.43
2017-12-03T09:15:24.548Z,0.42
2017-12-03T09:17:52.049Z,0.75
2017-12-03T09:20:19.557Z,0.64
2017-12-03T09:22:47.073Z,1.18
2017-12-03T09:25:14.585Z,1.29
2017-12-03T09:27:42.089Z,0.45
2017-12-03T09:30:09.628Z,0.80
2017-12-03T09:32:37.161Z,0.38
2017-12-03T09:35:04.874Z,0.47
2017-12-03T09:37:32.370Z,0.56
2017-12-03T09:39:59.870Z,0.12
2017-12-03T09:42:27.398Z,0.34
2017-12-03T09:44:54.913Z,0.53
2017-12-03T09:47:22.404Z,0.59
2017-12-03T09:49:49.893Z,0.34
2017-12-03T09:52:17.372Z,0.72
2017-12-03T09:54:44.893Z,1.09
2017-12-03T09:57:12.385Z,1.48
2017-12-03T09:59:39.907Z,0.51
2017-12-03T10:02:07.416Z,1.26
2017-12-03T10:04:34.905Z,1.20
2017-12-03T10:07:02.494Z,1.06
2017-12-03T10:09:29.994Z,0.92
2017-12-03T10:11:57.477Z,1.61
2017-12-03T10:14:24.991Z,1.50
2017-12-03T10:16:52.509Z,1.57
2017-12-03T10:19:20.024Z,1.27
2017-12-03T10:21:47.528Z,1.85
2017-12-03T10:24:15.056Z,1.40
2017-12-03T10:26:42.581Z,1.15
2017-12-03T10:29:10.322Z,1.28
2017-12-03T10:31:38.012Z,2.18
2017-12-03T10:34:05.562Z,1.65
2017-12-03T10:36:33.074Z,1.71
2017-12-03T10:39:00.583Z,2.13
2017-12-03T10:41:28.102Z,2.19
2017-12-03T10:43:55.630Z,2.31
2017-12-03T10:46:23.138Z,1.62
2017-12-03T10:48:50.677Z,0.65
2017-12-03T10:51:18.196Z,1.27
2017-12-03T10:53:45.673Z,1.50
2017-12-03T10:56:13.181Z,1.44
2017-12-03T10:58:40.706Z,2.45
2017-12-03T11:01:08.261Z,3.18
2017-12-03T11:03:35.774Z,2.17
2017-12-03T11:06:03.292Z,0.97
2017-12-03T11:08:30.819Z,0.69
2017-12-03T11:10:58.357Z,1.63
2017-12-03T11:13:26.183Z,1.69
2017-12-03T11:15:54.277Z,2.08
2017-12-03T11:18:21.757Z,2.49
2017-12-03T11:20:49.264Z,2.31
2017-12-03T11:23:16.760Z,2.01
2017-12-03T11:28:11.053Z,0.95
2017-12-03T11:30:38.572Z,1.56
2017-12-03T11:33:06.082Z,1.46
2017-12-03T11:35:33.625Z,0.99
2017-12-03T11:38:01.195Z,1.21
2017-12-03T11:40:28.693Z,1.27
2017-12-03T11:42:56.206Z,1.30
2017-12-03T11:45:23.722Z,1.68
2017-12-03T11:47:51.224Z,1.28
2017-12-03T11:50:18.728Z,1.31
2017-12-03T11:52:46.240Z,1.39
2017-12-03T11:55:13.734Z,1.39
2017-12-03T11:57:41.233Z,1.13
2017-12-03T12:00:08.743Z,1.19
2017-12-03T12:02:36.301Z,0.67
2017-12-03T12:05:03.795Z,0.68
2017-12-03T12:07:31.321Z,1.24
2017-12-03T12:09:58.844Z,0.37
2017-12-03T12:12:26.325Z,0.37
2017-12-03T12:14:53.834Z,0.48
2017-12-03T12:17:21.449Z,0.33
2017-12-03T12:19:48.962Z,0.23
2017-12-03T12:22:16.488Z,0.15
2017-12-03T12:24:43.972Z,0.37
2017-12-03T12:27:11.529Z,0.64
2017-12-03T12:29:39.088Z,0.83
2017-12-03T12:32:06.573Z,0.80
2017-12-03T12:34:34.103Z,0.63
2017-12-03T12:37:01.598Z,0.79
2017-12-03T12:39:29.093Z,0.72
2017-12-03T12:41:56.608Z,0.90
2017-12-03T12:44:24.097Z,0.74
2017-12-03T12:46:51.586Z,0.69
2017-12-03T12:49:19.137Z,0.92
2017-12-03T12:51:46.710Z,0.73
2017-12-03T12:54:14.218Z,0.60
2017-12-03T12:56:42.313Z,0.55
2017-12-03T12:59:09.850Z,0.70
2017-12-03T13:01:38.205Z,0.89
2017-12-03T13:04:05.701Z,0.88
2017-12-03T13:06:33.195Z,1.14
2017-12-03T13:09:00.751Z,1.18
2017-12-03T13:11:28.257Z,0.66
2017-12-03T13:13:55.831Z,1.04
2017-12-03T13:16:23.398Z,0.64
2017-12-03T13:18:51.196Z,0.47
2017-12-03T13:21:19.065Z,0.09
2017-12-03T13:23:46.590Z,0.09
2017-12-03T13:26:14.169Z,-0.07
2017-12-03T13:28:41.696Z,0.22
2017-12-03T13:31:09.211Z,0.34
2017-12-03T13:33:36.722Z,0.47
2017-12-03T13:36:04.417Z,0.12
2017-12-03T13:38:32.206Z,0.44
2017-12-03T13:40:59.744Z,-0.03
2017-12-03T13:43:27.299Z,0.05
2017-12-03T13:45:54.850Z,0.20
2017-12-03T13:48:22.363Z,0.19
2017-12-03T13:50:49.863Z,-0.28
2017-12-03T13:53:17.379Z,0.02
2017-12-03T13:55:44.888Z,-0.27
2017-12-03T13:58:12.422Z,-0.41
2017-12-03T14:00:39.977Z,-0.15
2017-12-03T14:03:07.501Z,-0.45
2017-12-03T14:05:35.041Z,-0.52
2017-12-03T14:08:02.571Z,-0.58
2017-12-03T14:10:30.175Z,-0.48
2017-12-03T14:12:57.730Z,-0.64
2017-12-03T14:15:25.291Z,-0.31
2017-12-03T14:17:52.813Z,-0.35
2017-12-03T14:20:20.321Z,-0.37
2017-12-03T14:22:47.837Z,-0.39
2017-12-03T14:25:15.338Z,-0.34
2017-12-03T14:27:42.856Z,-0.23
2017-12-03T14:30:10.385Z,-0.42
2017-12-03T14:32:37.909Z,-0.67
2017-12-03T14:35:05.486Z,-0.73
2017-12-03T14:37:33.027Z,-0.72
2017-12-03T14:40:00.542Z,-0.94
2017-12-03T14:42:28.084Z,-0.71
2017-12-03T14:44:55.598Z,-0.52
2017-12-03T14:47:23.119Z,-0.84
2017-12-03T14:49:50.638Z,-0.99
2017-12-03T14:52:18.157Z,-1.07
2017-12-03T14:54:45.660Z,-0.99
2017-12-03T14:57:13.200Z,-0.73
2017-12-03T14:59:40.784Z,-0.89
2017-12-03T15:02:08.298Z,-0.67
2017-12-03T15:04:35.901Z,-0.77
2017-12-03T15:07:03.417Z,-0.37
2017-12-03T15:09:31.058Z,-0.67
2017-12-03T15:11:58.579Z,-0.46
2017-12-03T15:14:26.086Z,-1.03
2017-12-03T15:16:53.618Z,-1.15
2017-12-03T15:19:21.156Z,-0.71
2017-12-03T15:21:48.653Z,-0.52
2017-12-03T15:24:16.202Z,-0.57
2017-12-03T15:26:43.734Z,-0.55
2017-12-03T15:29:11.257Z,-0.31
2017-12-03T15:31:38.766Z,-0.16
2017-12-03T15:34:06.302Z,-0.59
2017-12-03T15:36:33.827Z,-0.87
2017-12-03T15:39:01.327Z,-1.06
2017-12-03T15:41:28.853Z,-0.72
2017-12-03T15:43:56.414Z,-0.97
2017-12-03T15:46:23.908Z,-0.70
2017-12-03T15:48:51.471Z,-0.54
2017-12-03T15:51:19.224Z,-0.95
2017-12-03T15:53:46.776Z,-0.63
2017-12-03T15:56:14.314Z,-0.58
2017-12-03T15:58:41.877Z,-0.29
2017-12-03T16:01:09.397Z,-0.83
2017-12-03T16:03:36.914Z,-0.48
2017-12-03T16:06:04.448Z,-0.47
2017-12-03T16:08:32.078Z,-0.85
2017-12-03T16:10:59.603Z,-1.10
2017-12-03T16:13:27.106Z,-0.99
2017-12-03T16:15:54.660Z,-1.16
2017-12-03T16:18:22.205Z,-0.49
2017-12-03T16:20:49.726Z,-0.41
2017-12-03T16:23:17.322Z,-0.10
2017-12-03T16:25:44.889Z,-0.80
2017-12-03T16:28:12.443Z,-0.28
2017-12-03T16:30:39.998Z,-0.50
2017-12-03T16:33:07.661Z,-0.66
2017-12-03T16:35:35.204Z,-0.21
2017-12-03T16:38:02.764Z,-0.47
2017-12-03T16:40:30.356Z,-0.34
2017-12-03T16:42:59.536Z,-0.64
2017-12-03T16:45:27.042Z,-0.52
2017-12-03T16:47:54.569Z,-0.63
2017-12-03T16:50:22.098Z,-0.68
2017-12-03T16:52:49.621Z,-0.84
2017-12-03T16:55:17.165Z,-0.95
2017-12-03T16:57:44.788Z,-0.78
2017-12-03T17:00:13.205Z,-0.79
2017-12-03T17:02:40.778Z,-0.66
2017-12-03T17:05:08.315Z,-0.92
2017-12-03T17:07:35.889Z,-0.43
2017-12-03T17:10:03.439Z,-0.57
2017-12-03T17:12:30.944Z,-0.80
2017-12-03T17:14:58.489Z,-0.53
2017-12-03T17:17:26.024Z,-0.75
2017-12-03T17:19:53.578Z,-0.40
2017-12-03T17:22:21.109Z,-0.15
2017-12-03T17:24:48.660Z,-0.85
2017-12-03T17:27:16.217Z,-0.78
2017-12-03T17:29:43.737Z,-0.41
2017-12-03T17:32:11.348Z,-0.29
2017-12-03T17:34:38.930Z,-0.61
2017-12-03T17:37:06.466Z,-0.61
2017-12-03T17:39:33.978Z,-0.44
2017-12-03T17:42:01.531Z,-0.92
2017-12-03T17:44:29.070Z,-0.73
2017-12-03T17:46:56.596Z,-0.67
2017-12-03T17:49:24.148Z,-0.55
2017-12-03T17:51:51.682Z,-0.57
2017-12-03T17:54:19.198Z,-0.64
2017-12-03T17:56:46.833Z,-0.16
2017-12-03T17:59:14.395Z,-0.13
2017-12-03T18:01:41.981Z,-0.74
2017-12-03T18:04:09.514Z,-0.75
2017-12-03T18:06:37.068Z,-0.94
2017-12-03T18:09:04.721Z,-1.04
2017-12-03T18:11:32.401Z,-0.71
2017-12-03T18:13:59.925Z,-0.31
2017-12-03T18:16:27.439Z,-0.59
2017-12-03T18:18:54.966Z,-0.25
2017-12-03T18:21:22.478Z,-0.73
2017-12-03T18:23:49.992Z,-0.61
2017-12-03T18:26:17.499Z,-0.82
2017-12-03T18:28:45.042Z,-0.66
2017-12-03T18:31:12.604Z,-0.56
2017-12-03T18:33:40.213Z,-0.37
2017-12-03T18:36:07.733Z,-0.62
2017-12-03T18:38:35.246Z,-0.72
2017-12-03T18:41:02.764Z,-0.59
2017-12-03T18:43:30.279Z,-0.68
2017-12-03T18:45:57.805Z,-0.51
2017-12-03T18:48:25.466Z,-0.88
2017-12-03T18:50:52.979Z,-0.67
2017-12-03T18:53:20.488Z,-0.81
2017-12-03T18:55:47.998Z,-0.82
2017-12-03T18:58:15.501Z,-0.54
2017-12-03T19:00:43.146Z,-0.57
2017-12-03T19:03:10.684Z,-0.54
2017-12-03T19:05:38.246Z,-0.50
2017-12-03T19:08:05.792Z,-0.48
2017-12-03T19:10:33.361Z,-0.67
2017-12-03T19:13:00.870Z,-0.78
2017-12-03T19:15:28.385Z,-0.75
2017-12-03T19:17:55.912Z,-0.72
2017-12-03T19:20:23.446Z,-0.68
2017-12-03T19:22:50.956Z,-0.67
2017-12-03T19:25:18.504Z,-0.55
2017-12-03T19:27:46.057Z,-0.52
2017-12-03T19:30:13.627Z,-0.60
2017-12-03T19:32:41.200Z,-0.26
2017-12-03T19:35:08.809Z,-0.52
2017-12-03T19:37:36.312Z,-0.86
2017-12-03T19:40:03.854Z,-0.67
2017-12-03T19:42:31.363Z,-0.40
2017-12-03T19:44:58.938Z,-0.50
2017-12-03T19:47:26.463Z,-0.46
2017-12-03T19:49:54.006Z,-0.26
2017-12-03T19:52:21.523Z,-0.20
2017-12-03T19:54:49.159Z,-0.46
2017-12-03T19:57:16.706Z,-0.29
2017-12-03T19:59:44.245Z,-0.27
2017-12-03T20:02:11.854Z,-0.32
2017-12-03T20:04:39.409Z,-0.31
2017-12-03T20:07:06.934Z,-0.53
2017-12-03T20:09:34.475Z,-0.28
2017-12-03T20:12:02.021Z,-0.17
2017-12-03T20:14:29.528Z,0.02
2017-12-03T20:16:57.601Z,0.10
2017-12-03T20:19:25.141Z,-0.38
2017-12-03T20:21:53.229Z,-0.48
2017-12-03T20:24:20.756Z,-0.54
2017-12-03T20:26:48.310Z,-0.61
2017-12-03T20:29:15.910Z,-0.39
2017-12-03T20:31:43.421Z,-0.27
2017-12-03T20:34:10.924Z,-0.44
2017-12-03T20:36:38.427Z,-0.63
2017-12-03T20:39:06.866Z,-0.37
2017-12-03T20:41:34.368Z,-0.16
2017-12-03T20:44:02.139Z,-0.23
2017-12-03T20:46:29.653Z,-0.50
2017-12-03T20:48:57.194Z,-0.22
2017-12-03T20:51:24.740Z,-0.07
2017-12-03T20:53:52.295Z,0.02
2017-12-03T20:56:19.826Z,-0.07
2017-12-03T20:58:47.345Z,-0.18
2017-12-03T21:01:15.646Z,-0.05
2017-12-03T21:03:43.180Z,0.01
2017-12-03T21:06:10.836Z,0.00
2017-12-03T21:08:38.351Z,-0.16
2017-12-03T21:11:05.898Z,-0.37
2017-12-03T21:13:33.390Z,-0.31
2017-12-03T21:16:00.917Z,-0.30
2017-12-03T21:18:28.437Z,-0.19
2017-12-03T21:20:56.905Z,-0.15
2017-12-03T21:23:24.490Z,0.03
2017-12-03T21:25:52.077Z,-0.05
2017-12-03T21:28:19.577Z,0.21
2017-12-03T21:30:47.405Z,-0.16
2017-12-03T21:33:15.722Z,0.41
2017-12-03T21:35:43.257Z,0.47
2017-12-03T21:38:10.768Z,0.55
2017-12-03T21:40:38.287Z,0.10
2017-12-03T21:43:05.848Z,0.13
2017-12-03T21:45:33.354Z,0.17
2017-12-03T21:48:00.866Z,0.07
2017-12-03T21:50:28.410Z,-0.02
2017-12-03T21:52:55.937Z,-0.29
2017-12-03T21:55:23.659Z,0.05
2017-12-03T21:57:51.168Z,-0.04
2017-12-03T22:00:18.886Z,0.09
2017-12-03T22:02:46.409Z,0.15
2017-12-03T22:05:13.912Z,0.20
2017-12-03T22:07:41.409Z,-0.09
2017-12-03T22:10:08.935Z,-0.17
2017-12-03T22:12:36.572Z,-0.15
2017-12-03T22:15:04.090Z,-0.28
2017-12-03T22:17:31.638Z,-0.37
2017-12-03T22:19:59.138Z,-0.32
2017-12-03T22:22:26.650Z,-0.36
2017-12-03T22:24:54.181Z,-0.05
2017-12-03T22:27:21.686Z,0.13
2017-12-03T22:29:49.213Z,-0.07
2017-12-03T22:32:16.757Z,-0.22
2017-12-03T22:34:44.253Z,-0.07
2017-12-03T22:37:11.782Z,-0.34
2017-12-03T22:39:39.312Z,0.05
2017-12-03T22:42:06.830Z,-0.16
2017-12-03T22:44:34.354Z,-0.31
2017-12-03T22:47:01.866Z,-0.10
2017-12-03T22:49:29.376Z,-0.04
2017-12-03T22:51:56.883Z,-0.02
2017-12-03T22:54:24.392Z,-0.06
2017-12-03T22:56:51.878Z,0.14
2017-12-03T22:59:19.482Z,0.23
2017-12-03T23:01:46.999Z,0.21
2017-12-03T23:04:14.568Z,0.51
2017-12-03T23:06:42.205Z,0.22
2017-12-03T23:09:10.677Z,0.16
2017-12-03T23:11:38.228Z,0.36
2017-12-03T23:14:05.757Z,0.61
2017-12-03T23:16:33.286Z,0.57
2017-12-03T23:19:00.786Z,0.61
2017-12-03T23:21:28.276Z,0.20
2017-12-03T23:23:55.792Z,0.11
2017-12-03T23:26:23.281Z,0.31
2017-12-03T23:28:50.798Z,0.36
2017-12-03T23:31:18.302Z,0.31
2017-12-03T23:33:45.808Z,0.23
2017-12-03T23:36:13.310Z,0.42
2017-12-03T23:41:42.275Z,0.45
2017-12-03T23:44:09.780Z,0.41
2017-12-03T23:46:37.280Z,0.36
2017-12-03T23:49:04.795Z,0.36
2017-12-03T23:51:32.297Z,0.58
2017-12-03T23:53:59.793Z,0.36
2017-12-03T23:56:27.310Z,0.27
2017-12-03T23:58:54.800Z,0.38
